Time;durP1;ratioP1;P1;durP2;ratioP2;P2;SDS_P1;SDS_P2;PMS_P1;PMS_P2;Temp;Humidity;BMP_temperature;BMP_pressure;BME280_temperature;BME280_humidity;BME280_pressure;Samples;Min_cycle;Max_cycle;Signal;HPM_P1;HPM_P2
2021/06/01 00:00:23;;;;;;;33.17;14.82;;;;;;;;;;4958052;29;20023;-82
2021/06/01 00:02:48;;;;;;;26.52;14.38;;;;;;;;;;4940934;29;20035;-82
2021/06/01 00:05:13;;;;;;;31.05;15.20;;;;;;;;;;4950541;29;20020;-82
2021/06/01 00:07:39;;;;;;;30.55;15.23;;;;;;;;;;4933778;29;20020;-81
2021/06/01 00:10:05;;;;;;;36.10;15.43;;;;;;;;;;4933708;29;20034;-83
2021/06/01 00:12:30;;;;;;;38.60;16.15;;;;;;;;;;4950821;29;20023;-82
2021/06/01 00:14:56;;;;;;;31.52;16.25;;;;;;;;;;4950334;29;20062;-82
2021/06/01 00:17:21;;;;;;;40.55;17.90;;;;;;;;;;4933921;29;20020;-82
2021/06/01 00:19:46;;;;;;;37.03;18.50;;;;;;;;;;4932291;29;20031;-82
2021/06/01 00:22:11;;;;;;;35.38;19.23;;;;;;;;;;4947542;29;20020;-82
2021/06/01 00:24:38;;;;;;;36.40;19.23;;;;;;;;;;4951109;29;20028;-83
2021/06/01 00:27:05;;;;;;;39.47;20.00;;;;;;;;;;4955340;29;20024;-82
2021/06/01 00:29:30;;;;;;;42.40;18.65;;;;;;;;;;4943642;29;20023;-82
2021/06/01 00:31:56;;;;;;;43.58;20.92;;;;;;;;;;4952103;29;20050;-83
2021/06/01 00:34:22;;;;;;;37.83;19.70;;;;;;;;;;4920976;29;20083;-83
2021/06/01 00:36:48;;;;;;;40.53;19.02;;;;;;;;;;4937476;29;20403;-83
2021/06/01 00:39:13;;;;;;;41.35;19.65;;;;;;;;;;4951409;29;20112;-82
2021/06/01 00:41:38;;;;;;;38.03;18.85;;;;;;;;;;4951742;29;20048;-83
2021/06/01 00:44:04;;;;;;;41.45;19.10;;;;;;;;;;4950116;29;20579;-82
2021/06/01 00:46:29;;;;;;;40.55;20.70;;;;;;;;;;4944394;29;20039;-82
2021/06/01 00:48:55;;;;;;;46.63;19.92;;;;;;;;;;4953032;29;20034;-83
2021/06/01 00:51:20;;;;;;;34.95;18.50;;;;;;;;;;4941316;29;20092;-82
2021/06/01 00:53:45;;;;;;;36.05;18.70;;;;;;;;;;4934591;29;20115;-82
2021/06/01 00:56:10;;;;;;;39.15;19.38;;;;;;;;;;4916312;29;20443;-81
2021/06/01 00:58:36;;;;;;;41.05;18.83;;;;;;;;;;4917228;29;20091;-82
2021/06/01 01:03:28;;;;;;;42.55;19.48;;;;;;;;;;4934403;29;20046;-82
2021/06/01 01:06:02;;;;;;;35.80;17.73;;;;;;;;;;4936128;29;20020;-82
2021/06/01 01:08:44;;;;;;;37.72;19.20;;;;;;;;;;4917169;29;20024;-81
2021/06/01 01:11:12;;;;;;;41.28;20.13;;;;;;;;;;4937124;29;20521;-82
2021/06/01 01:13:43;;;;;;;37.72;19.23;;;;;;;;;;4921788;29;20039;-81
2021/06/01 01:16:11;;;;;;;41.15;20.30;;;;;;;;;;4930381;29;20028;-82
2021/06/01 01:18:38;;;;;;;44.35;20.05;;;;;;;;;;4939362;29;20027;-82
2021/06/01 01:21:07;;;;;;;42.35;20.55;;;;;;;;;;4947564;29;20059;-82
2021/06/01 01:23:35;;;;;;;41.10;20.40;;;;;;;;;;4959709;28;20028;-82
2021/06/01 01:26:03;;;;;;;41.92;20.88;;;;;;;;;;4957449;29;20031;-82
2021/06/01 01:28:37;;;;;;;50.50;21.42;;;;;;;;;;4951952;29;20038;-82
2021/06/01 01:31:06;;;;;;;43.17;20.50;;;;;;;;;;4949349;29;20446;-83
2021/06/01 01:33:33;;;;;;;44.35;20.17;;;;;;;;;;4930378;29;20117;-81
2021/06/01 01:36:01;;;;;;;38.15;21.10;;;;;;;;;;4929580;29;20028;-82
2021/06/01 01:38:26;;;;;;;47.38;21.25;;;;;;;;;;4946987;29;20533;-82
2021/06/01 01:40:53;;;;;;;48.65;21.60;;;;;;;;;;4932018;29;20024;-82
2021/06/01 01:43:19;;;;;;;40.22;20.50;;;;;;;;;;4947572;29;20450;-82
2021/06/01 01:45:49;;;;;;;50.58;21.02;;;;;;;;;;4938487;29;20079;-82
2021/06/01 01:51:18;;;;;;;40.45;19.58;;;;;;;;;;4946839;29;20043;-82
2021/06/01 01:53:54;;;;;;;45.67;20.88;;;;;;;;;;4913846;29;20016;-81
2021/06/01 01:56:24;;;;;;;45.17;22.23;;;;;;;;;;4936013;29;20059;-82
2021/06/01 01:58:51;;;;;;;49.22;22.30;;;;;;;;;;4949306;29;20035;-82
2021/06/01 02:01:17;;;;;;;48.92;23.50;;;;;;;;;;4946434;29;20020;-82
2021/06/01 02:03:42;;;;;;;61.25;25.13;;;;;;;;;;4948647;29;20024;-82
2021/06/01 02:06:08;;;;;;;63.95;23.77;;;;;;;;;;4949031;29;20028;-82
2021/06/01 02:08:36;;;;;;;59.35;23.60;;;;;;;;;;4946767;29;20031;-82
2021/06/01 02:11:02;;;;;;;50.60;23.75;;;;;;;;;;4947840;29;20406;-82
2021/06/01 02:13:28;;;;;;;59.15;25.05;;;;;;;;;;4948653;29;20030;-82
2021/06/01 02:15:54;;;;;;;51.22;22.75;;;;;;;;;;4937546;29;20024;-82
2021/06/01 02:18:19;;;;;;;38.53;21.45;;;;;;;;;;4925245;29;20038;-82
2021/06/01 02:20:47;;;;;;;46.80;21.80;;;;;;;;;;4927481;29;20051;-81
2021/06/01 02:26:03;;;;;;;41.38;21.75;;;;;;;;;;4946893;29;20094;-81
2021/06/01 02:28:47;;;;;;;44.83;23.50;;;;;;;;;;4929760;29;20465;-81
2021/06/01 02:31:23;;;;;;;47.95;23.85;;;;;;;;;;4946379;29;20024;-82
2021/06/01 02:33:48;;;;;;;47.85;22.73;;;;;;;;;;4947215;29;20091;-82
2021/06/01 02:36:15;;;;;;;47.95;23.40;;;;;;;;;;4934985;29;20033;-82
2021/06/01 02:38:40;;;;;;;46.50;22.85;;;;;;;;;;4928909;29;20031;-82
2021/06/01 02:41:06;;;;;;;48.75;23.40;;;;;;;;;;4936084;29;20020;-82
2021/06/01 02:43:31;;;;;;;55.90;23.75;;;;;;;;;;4944842;29;20106;-82
2021/06/01 02:45:57;;;;;;;46.83;22.13;;;;;;;;;;4938564;29;20028;-82
2021/06/01 02:48:23;;;;;;;52.60;23.67;;;;;;;;;;4911997;29;20028;-82
2021/06/01 02:50:49;;;;;;;55.20;24.38;;;;;;;;;;4932959;29;20042;-82
2021/06/01 02:53:15;;;;;;;58.88;25.45;;;;;;;;;;4949099;29;20024;-82
2021/06/01 02:55:41;;;;;;;59.08;24.38;;;;;;;;;;4949780;29;20063;-82
2021/06/01 02:58:07;;;;;;;56.38;24.13;;;;;;;;;;4951155;29;20020;-82
2021/06/01 03:00:34;;;;;;;57.70;24.40;;;;;;;;;;4932716;29;20083;-82
2021/06/01 03:03:02;;;;;;;54.38;25.08;;;;;;;;;;4947460;29;20035;-82
2021/06/01 03:05:32;;;;;;;44.00;23.80;;;;;;;;;;4948223;29;20102;-82
2021/06/01 03:08:05;;;;;;;44.45;23.77;;;;;;;;;;4947106;29;20111;-82
2021/06/01 03:10:30;;;;;;;46.17;23.58;;;;;;;;;;4947652;29;20031;-82
2021/06/01 03:13:01;;;;;;;36.00;22.38;;;;;;;;;;4935001;29;20054;-81
2021/06/01 03:15:26;;;;;;;40.08;22.67;;;;;;;;;;4943711;29;20020;-82
2021/06/01 03:17:51;;;;;;;51.97;24.00;;;;;;;;;;4916194;29;20024;-80
2021/06/01 03:20:17;;;;;;;46.53;22.90;;;;;;;;;;4933243;29;20059;-82
2021/06/01 03:22:43;;;;;;;35.97;21.50;;;;;;;;;;4918241;29;20036;-82
2021/06/01 03:25:08;;;;;;;38.25;21.65;;;;;;;;;;4952861;29;20027;-81
2021/06/01 03:27:34;;;;;;;40.30;22.80;;;;;;;;;;4936364;29;20059;-81
2021/06/01 03:29:59;;;;;;;36.10;23.52;;;;;;;;;;4933297;29;20028;-82
2021/06/01 03:32:24;;;;;;;39.40;23.48;;;;;;;;;;4899961;29;20028;-82
2021/06/01 03:34:49;;;;;;;41.08;24.23;;;;;;;;;;4947102;29;20023;-81
2021/06/01 03:37:22;;;;;;;46.00;22.70;;;;;;;;;;4954069;29;20034;-81
2021/06/01 03:39:47;;;;;;;39.90;23.38;;;;;;;;;;4954140;29;20516;-81
2021/06/01 03:42:12;;;;;;;44.85;25.10;;;;;;;;;;4948826;29;20107;-81
2021/06/01 03:44:41;;;;;;;43.10;24.70;;;;;;;;;;4952511;29;20031;-82
2021/06/01 03:47:06;;;;;;;41.17;25.17;;;;;;;;;;4951386;29;20032;-82
2021/06/01 03:49:32;;;;;;;45.28;25.50;;;;;;;;;;4918653;29;20102;-82
2021/06/01 03:51:57;;;;;;;45.22;25.05;;;;;;;;;;4948876;29;20276;-82
2021/06/01 03:54:24;;;;;;;49.95;25.85;;;;;;;;;;4939489;29;20095;-82
2021/06/01 03:56:49;;;;;;;46.95;26.52;;;;;;;;;;4954733;29;20031;-82
2021/06/01 03:59:14;;;;;;;45.78;24.65;;;;;;;;;;4953716;29;20035;-81
2021/06/01 04:01:40;;;;;;;42.47;23.83;;;;;;;;;;4952737;28;20031;-81
2021/06/01 04:04:05;;;;;;;47.03;24.35;;;;;;;;;;4945888;29;20084;-82
2021/06/01 04:06:30;;;;;;;38.72;22.33;;;;;;;;;;4949104;29;20050;-81
2021/06/01 04:08:55;;;;;;;41.50;23.00;;;;;;;;;;4951169;29;20027;-81
2021/06/01 04:11:20;;;;;;;45.25;22.58;;;;;;;;;;4949867;29;20406;-82
2021/06/01 04:13:46;;;;;;;41.30;21.85;;;;;;;;;;4935736;29;20099;-80
2021/06/01 04:16:11;;;;;;;40.63;21.52;;;;;;;;;;4923392;29;20066;-80
2021/06/01 04:18:36;;;;;;;34.58;21.30;;;;;;;;;;4934010;29;20039;-80
2021/06/01 04:21:02;;;;;;;40.50;21.95;;;;;;;;;;4940981;29;20054;-81
2021/06/01 04:23:27;;;;;;;37.63;24.20;;;;;;;;;;4938986;29;20047;-79
2021/06/01 04:25:52;;;;;;;40.55;22.17;;;;;;;;;;4941839;29;20012;-80
2021/06/01 04:28:19;;;;;;;35.28;22.55;;;;;;;;;;4940191;29;20042;-81
2021/06/01 04:30:45;;;;;;;40.88;22.25;;;;;;;;;;4938911;29;20032;-80
2021/06/01 04:33:13;;;;;;;33.45;20.67;;;;;;;;;;4934721;29;20042;-81
2021/06/01 04:35:39;;;;;;;32.40;20.00;;;;;;;;;;4940552;29;20462;-78
2021/06/01 04:38:04;;;;;;;38.72;21.15;;;;;;;;;;4921120;29;20030;-80
2021/06/01 04:40:29;;;;;;;29.80;21.08;;;;;;;;;;4940392;29;20335;-80
2021/06/01 04:42:55;;;;;;;35.30;20.73;;;;;;;;;;4940977;29;20023;-80
2021/06/01 04:45:20;;;;;;;30.20;20.17;;;;;;;;;;4932415;29;20042;-80
2021/06/01 04:47:46;;;;;;;31.20;20.15;;;;;;;;;;4938416;29;20027;-81
2021/06/01 04:50:11;;;;;;;41.25;19.80;;;;;;;;;;4915406;29;20103;-81
2021/06/01 04:52:36;;;;;;;32.45;19.40;;;;;;;;;;4924165;29;20024;-81
2021/06/01 04:55:02;;;;;;;34.30;19.70;;;;;;;;;;4941088;29;20042;-81
2021/06/01 04:57:27;;;;;;;28.20;19.10;;;;;;;;;;4937169;29;20027;-80
2021/06/01 04:59:53;;;;;;;29.08;19.45;;;;;;;;;;4937601;29;20051;-81
2021/06/01 05:02:18;;;;;;;26.27;18.85;;;;;;;;;;4941297;29;20035;-81
2021/06/01 05:04:43;;;;;;;32.17;18.35;;;;;;;;;;4938622;29;20132;-81
2021/06/01 05:07:08;;;;;;;25.98;18.42;;;;;;;;;;4938944;29;20019;-81
2021/06/01 05:09:34;;;;;;;28.33;18.75;;;;;;;;;;4934481;29;20091;-80
2021/06/01 05:11:59;;;;;;;26.75;18.80;;;;;;;;;;4935208;29;20106;-80
2021/06/01 05:14:25;;;;;;;30.80;18.38;;;;;;;;;;4940741;29;20066;-81
2021/06/01 05:16:50;;;;;;;30.40;18.65;;;;;;;;;;4935832;29;20055;-81
2021/06/01 05:19:15;;;;;;;31.13;17.52;;;;;;;;;;4937326;29;20091;-80
2021/06/01 05:21:41;;;;;;;27.98;18.35;;;;;;;;;;4940399;29;20055;-80
2021/06/01 05:24:06;;;;;;;23.02;17.05;;;;;;;;;;4944200;29;20137;-81
2021/06/01 05:26:31;;;;;;;26.23;17.60;;;;;;;;;;4943751;29;20095;-81
2021/06/01 05:28:56;;;;;;;24.08;17.30;;;;;;;;;;4943231;29;20020;-81
2021/06/01 05:33:57;;;;;;;25.33;16.20;;;;;;;;;;4922748;29;20038;-81
2021/06/01 05:36:22;;;;;;;23.52;15.55;;;;;;;;;;4942514;29;20099;-81
2021/06/01 05:38:47;;;;;;;29.20;15.85;;;;;;;;;;4927779;29;20024;-81
2021/06/01 05:41:13;;;;;;;23.63;14.48;;;;;;;;;;4931026;29;20020;-81
2021/06/01 05:43:38;;;;;;;24.58;15.50;;;;;;;;;;4954073;29;20019;-82
2021/06/01 05:46:04;;;;;;;19.92;15.45;;;;;;;;;;4949181;29;20027;-81
2021/06/01 05:48:29;;;;;;;23.63;14.52;;;;;;;;;;4950327;29;20024;-81
2021/06/01 05:50:56;;;;;;;21.42;14.13;;;;;;;;;;4949590;29;20087;-81
2021/06/01 05:53:23;;;;;;;21.13;14.88;;;;;;;;;;4948771;29;20032;-80
2021/06/01 05:55:49;;;;;;;18.65;14.13;;;;;;;;;;4942796;29;20113;-81
2021/06/01 05:58:14;;;;;;;21.42;14.00;;;;;;;;;;4946337;29;20020;-81
2021/06/01 06:00:39;;;;;;;20.08;13.20;;;;;;;;;;4928272;29;20016;-82
2021/06/01 06:03:05;;;;;;;22.17;13.57;;;;;;;;;;4929912;29;20096;-81
2021/06/01 06:05:30;;;;;;;21.15;13.05;;;;;;;;;;4942172;29;20028;-81
2021/06/01 06:08:03;;;;;;;20.90;12.90;;;;;;;;;;5145597;23;20137;-82
2021/06/01 06:10:30;;;;;;;18.73;12.90;;;;;;;;;;4919541;29;20011;-84
2021/06/01 06:12:56;;;;;;;19.77;12.38;;;;;;;;;;4920740;29;20008;-84
2021/06/01 06:18:04;;;;;;;19.48;13.73;;;;;;;;;;5286159;23;20047;-84
2021/06/01 06:20:31;;;;;;;21.15;13.23;;;;;;;;;;5206758;23;20006;-82
2021/06/01 06:28:06;;;;;;;18.13;12.13;;;;;;;;;;5459572;23;20132;-82
2021/06/01 06:30:32;;;;;;;14.68;11.55;;;;;;;;;;4936338;29;20020;-82
2021/06/01 06:32:57;;;;;;;20.52;11.73;;;;;;;;;;4952464;29;20091;-82
2021/06/01 06:35:23;;;;;;;17.80;10.63;;;;;;;;;;4944177;29;20023;-82
2021/06/01 06:37:48;;;;;;;15.50;11.15;;;;;;;;;;4950993;29;20004;-82
2021/06/01 06:40:14;;;;;;;18.13;11.32;;;;;;;;;;4947709;28;20068;-83
2021/06/01 06:42:40;;;;;;;15.57;9.88;;;;;;;;;;4948110;28;20020;-83
2021/06/01 06:45:06;;;;;;;15.13;9.85;;;;;;;;;;4954182;28;20027;-83
2021/06/01 06:47:57;;;;;;;14.55;9.45;;;;;;;;;;4944317;29;20043;-83
2021/06/01 06:50:23;;;;;;;17.48;9.70;;;;;;;;;;5085934;23;20043;-83
2021/06/01 06:52:49;;;;;;;15.10;9.15;;;;;;;;;;4951555;28;20024;-83
2021/06/01 06:55:15;;;;;;;11.77;8.43;;;;;;;;;;4954186;28;20099;-83
2021/06/01 06:57:41;;;;;;;16.55;9.05;;;;;;;;;;4952995;28;20027;-84
2021/06/01 07:02:42;;;;;;;10.70;7.22;;;;;;;;;;5025499;23;19969;-85
2021/06/01 07:12:54;;;;;;;12.60;7.40;;;;;;;;;;5302425;23;20063;-85
2021/06/01 07:20:33;;;;;;;13.27;6.03;;;;;;;;;;5283247;23;20168;-84
2021/06/01 07:22:59;;;;;;;11.20;5.70;;;;;;;;;;4966546;29;20008;-84
2021/06/01 07:35:45;;;;;;;10.93;5.38;;;;;;;;;;5642555;23;20120;-84
2021/06/01 07:38:12;;;;;;;11.13;5.43;;;;;;;;;;4937470;29;20004;-83
2021/06/01 07:43:13;;;;;;;15.15;4.70;;;;;;;;;;6017034;23;20016;-77
2021/06/01 08:06:12;;;;;;;12.73;8.10;;;;;;;;;;4957502;28;20031;-84
2021/06/01 08:13:48;;;;;;;14.18;8.15;;;;;;;;;;5226199;23;20068;-84
2021/06/01 09:31:15;;;;;;;8.88;5.18;;;;;;;;;;5256713;23;20103;-84
2021/06/01 09:33:42;;;;;;;7.68;4.63;;;;;;;;;;4948566;29;20046;-85
2021/06/01 09:36:08;;;;;;;9.52;4.13;;;;;;;;;;4947399;29;20080;-84
2021/06/01 09:38:33;;;;;;;8.05;4.30;;;;;;;;;;4947836;29;20032;-83
2021/06/01 09:41:02;;;;;;;10.27;4.50;;;;;;;;;;4946779;29;20032;-83
2021/06/01 09:43:27;;;;;;;6.22;4.38;;;;;;;;;;4928906;29;20016;-83
2021/06/01 09:45:53;;;;;;;7.50;4.28;;;;;;;;;;4955426;28;20043;-82
2021/06/01 09:48:18;;;;;;;8.80;4.75;;;;;;;;;;4958913;28;20096;-83
2021/06/01 09:51:01;;;;;;;7.05;4.55;;;;;;;;;;4961370;28;20022;-84
2021/06/01 10:11:51;;;;;;;13.35;6.00;;;;;;;;;;5980867;23;21022;-78
2021/06/01 12:44:09;;;;;;;3.20;2.10;;;;;;;;;;6024820;23;20068;31
2021/06/01 13:47:45;;;;;;;4.10;2.45;;;;;;;;;;5256294;23;20083;-86
2021/06/01 13:50:13;;;;;;;3.42;2.65;;;;;;;;;;4957633;28;20020;-85
2021/06/01 13:52:55;;;;;;;4.65;3.20;;;;;;;;;;4950358;29;20043;-83
2021/06/01 13:55:29;;;;;;;5.93;3.75;;;;;;;;;;4956339;28;20020;-84
2021/06/01 14:00:38;;;;;;;5.32;3.45;;;;;;;;;;4957513;28;19907;-86
2021/06/01 17:36:29;;;;;;;2.90;1.00;;;;;;;;;;5887139;23;20047;-85
2021/06/01 17:56:54;;;;;;;1.58;1.17;;;;;;;;;;5099706;23;20079;-84
2021/06/01 19:58:56;;;;;;;3.22;0.90;;;;;;;;;;6250218;23;20009;-84
2021/06/01 20:01:22;;;;;;;2.25;0.93;;;;;;;;;;6245284;23;19993;-83
2021/06/01 20:03:50;;;;;;;2.35;0.70;;;;;;;;;;6245498;23;19992;-84
2021/06/01 20:06:15;;;;;;;4.18;1.10;;;;;;;;;;6245469;23;20004;-82
2021/06/01 20:08:41;;;;;;;1.48;1.00;;;;;;;;;;6245195;23;20000;-83
2021/06/01 20:11:07;;;;;;;4.80;1.25;;;;;;;;;;6219441;23;19985;-84
2021/06/01 20:13:33;;;;;;;2.50;1.30;;;;;;;;;;6244974;23;20052;-82
2021/06/01 20:15:58;;;;;;;4.35;1.15;;;;;;;;;;6245067;23;19993;-82
2021/06/01 20:18:27;;;;;;;2.83;1.00;;;;;;;;;;6273258;22;20004;-83
2021/06/01 20:20:54;;;;;;;1.88;1.15;;;;;;;;;;6304408;22;19996;-83
2021/06/01 20:23:19;;;;;;;2.58;1.15;;;;;;;;;;6279808;22;20004;-81
2021/06/01 20:25:48;;;;;;;1.77;1.02;;;;;;;;;;6305870;22;20027;-82
2021/06/01 20:28:19;;;;;;;1.95;1.00;;;;;;;;;;6304143;22;20103;-81
2021/06/01 20:30:47;;;;;;;4.00;1.10;;;;;;;;;;6304479;22;20002;-82
2021/06/01 20:33:13;;;;;;;2.70;1.25;;;;;;;;;;6305261;22;19984;-82
2021/06/01 20:35:39;;;;;;;2.13;1.10;;;;;;;;;;6304482;22;19983;-82
2021/06/01 20:38:05;;;;;;;3.72;1.20;;;;;;;;;;6305090;22;19987;-82
2021/06/01 20:40:31;;;;;;;3.10;1.13;;;;;;;;;;6303588;22;19984;-83
2021/06/01 20:42:57;;;;;;;4.22;1.10;;;;;;;;;;6275354;22;20026;-82
2021/06/01 20:45:27;;;;;;;5.82;1.55;;;;;;;;;;6305113;22;20003;-84
2021/06/01 20:47:53;;;;;;;2.03;1.38;;;;;;;;;;6280529;22;19999;-83
2021/06/01 20:50:19;;;;;;;2.65;1.10;;;;;;;;;;6305744;22;20013;-83
2021/06/01 20:52:44;;;;;;;4.03;1.00;;;;;;;;;;6306190;22;19992;-83
2021/06/01 20:55:10;;;;;;;1.38;1.00;;;;;;;;;;6305844;22;19991;-84
2021/06/01 20:57:39;;;;;;;4.03;1.33;;;;;;;;;;6305944;22;19988;-82
2021/06/01 21:00:06;;;;;;;2.30;1.27;;;;;;;;;;6305399;22;19983;-83
2021/06/01 21:02:35;;;;;;;2.65;1.33;;;;;;;;;;6306045;22;19984;-83
2021/06/01 21:05:00;;;;;;;5.30;1.60;;;;;;;;;;6304859;22;19999;-83
2021/06/01 21:07:27;;;;;;;2.50;1.20;;;;;;;;;;6305326;22;19998;-83
2021/06/01 21:09:53;;;;;;;2.63;1.17;;;;;;;;;;6305960;22;19991;-82
2021/06/01 21:12:18;;;;;;;1.73;1.30;;;;;;;;;;6304172;22;19995;-83
2021/06/01 21:14:46;;;;;;;4.25;1.30;;;;;;;;;;6305845;22;20014;-83
2021/06/01 21:17:12;;;;;;;1.50;1.20;;;;;;;;;;6304991;22;19987;-83
2021/06/01 21:19:38;;;;;;;4.53;1.50;;;;;;;;;;6331107;22;19992;-82
2021/06/01 21:22:04;;;;;;;4.13;1.33;;;;;;;;;;6330888;22;20011;-83
2021/06/01 21:24:32;;;;;;;2.33;1.33;;;;;;;;;;6304576;22;20004;-82
2021/06/01 21:26:58;;;;;;;3.85;1.30;;;;;;;;;;6305625;22;20018;-82
2021/06/01 21:29:23;;;;;;;2.50;1.10;;;;;;;;;;6304761;22;19999;-83
2021/06/01 21:31:57;;;;;;;1.88;1.30;;;;;;;;;;6305073;22;20006;-84
2021/06/01 21:34:24;;;;;;;4.80;1.27;;;;;;;;;;6305627;22;19990;-83
2021/06/01 21:36:51;;;;;;;4.07;1.40;;;;;;;;;;6305264;22;19991;-84
2021/06/01 21:39:20;;;;;;;2.28;1.50;;;;;;;;;;6304415;22;20059;-83
2021/06/01 21:41:46;;;;;;;2.45;1.38;;;;;;;;;;6304835;22;20011;-83
2021/06/01 21:44:12;;;;;;;3.78;1.40;;;;;;;;;;6305545;22;19980;-83
2021/06/01 21:46:38;;;;;;;3.58;1.10;;;;;;;;;;6330812;22;20016;-82
2021/06/01 21:49:05;;;;;;;4.32;1.30;;;;;;;;;;6305499;22;20011;-84
2021/06/01 21:51:33;;;;;;;2.33;1.25;;;;;;;;;;6305021;22;19987;-84
2021/06/01 21:53:59;;;;;;;4.70;1.50;;;;;;;;;;6297741;22;19992;-83
2021/06/01 21:56:29;;;;;;;2.17;1.30;;;;;;;;;;6304033;22;19984;-84
2021/06/01 21:58:54;;;;;;;4.43;1.40;;;;;;;;;;6305391;22;19984;-82
2021/06/01 22:01:26;;;;;;;3.67;1.38;;;;;;;;;;6304529;22;20042;-83
2021/06/01 22:03:51;;;;;;;2.90;1.40;;;;;;;;;;6305227;22;20044;-83
2021/06/01 22:06:17;;;;;;;2.75;1.17;;;;;;;;;;6305063;22;20011;-83
2021/06/01 22:08:43;;;;;;;2.72;1.50;;;;;;;;;;6304238;22;19999;-84
2021/06/01 22:11:08;;;;;;;4.25;1.30;;;;;;;;;;6304991;22;19988;-83
2021/06/01 22:13:34;;;;;;;4.63;1.77;;;;;;;;;;6304900;22;20052;-84
2021/06/01 22:16:00;;;;;;;4.45;1.50;;;;;;;;;;6304911;22;20007;-82
2021/06/01 22:18:28;;;;;;;4.53;1.50;;;;;;;;;;6305643;22;20014;-83
2021/06/01 22:20:58;;;;;;;2.45;1.50;;;;;;;;;;6305505;22;19995;-83
2021/06/01 22:23:27;;;;;;;1.90;1.38;;;;;;;;;;6305112;22;20004;-82
2021/06/01 22:25:53;;;;;;;2.17;1.50;;;;;;;;;;6305538;22;20005;-83
2021/06/01 22:28:19;;;;;;;2.33;1.35;;;;;;;;;;6305324;22;20002;-83
2021/06/01 22:30:46;;;;;;;5.82;1.52;;;;;;;;;;6304863;22;19988;-82
2021/06/01 22:33:12;;;;;;;3.08;1.38;;;;;;;;;;6304811;22;19988;-83
2021/06/01 22:35:37;;;;;;;4.63;1.30;;;;;;;;;;6305372;22;19996;-83
2021/06/01 22:38:04;;;;;;;2.10;1.23;;;;;;;;;;6304572;22;20033;-84
2021/06/01 22:40:29;;;;;;;7.35;1.80;;;;;;;;;;6305019;22;20027;-83
2021/06/01 22:42:55;;;;;;;3.75;1.48;;;;;;;;;;6305085;22;19991;-83
2021/06/01 22:45:24;;;;;;;3.42;1.50;;;;;;;;;;6304776;22;19984;-83
2021/06/01 22:47:53;;;;;;;2.72;1.40;;;;;;;;;;6304339;22;19988;-83
2021/06/01 22:50:19;;;;;;;6.82;1.80;;;;;;;;;;6303646;22;19994;-83
2021/06/01 22:52:47;;;;;;;3.33;1.58;;;;;;;;;;6304295;22;19988;-83
2021/06/01 22:55:13;;;;;;;4.78;1.50;;;;;;;;;;6304668;22;19988;-83
2021/06/01 22:57:40;;;;;;;2.92;1.60;;;;;;;;;;6304727;22;20003;-83
2021/06/01 23:00:11;;;;;;;2.78;1.60;;;;;;;;;;6304397;22;19991;-84
2021/06/01 23:02:44;;;;;;;2.53;1.58;;;;;;;;;;6304305;22;20164;-83
2021/06/01 23:05:11;;;;;;;4.80;1.50;;;;;;;;;;6304316;22;19987;-83
2021/06/01 23:07:38;;;;;;;3.08;1.40;;;;;;;;;;6305002;22;20192;-83
2021/06/01 23:10:04;;;;;;;2.58;1.60;;;;;;;;;;6304458;22;20022;-83
2021/06/01 23:12:30;;;;;;;4.50;1.60;;;;;;;;;;6304705;22;20006;-83
2021/06/01 23:14:59;;;;;;;4.28;1.55;;;;;;;;;;6304051;22;19988;-83
2021/06/01 23:17:29;;;;;;;2.47;1.35;;;;;;;;;;6303987;22;19991;-83
2021/06/01 23:19:54;;;;;;;4.32;1.38;;;;;;;;;;6304779;22;19984;-85
2021/06/01 23:22:20;;;;;;;1.50;1.27;;;;;;;;;;6304183;22;20051;-82
2021/06/01 23:24:46;;;;;;;2.95;1.55;;;;;;;;;;6304657;22;20004;-83
2021/06/01 23:27:12;;;;;;;3.65;1.45;;;;;;;;;;6304740;22;19984;-83
2021/06/01 23:29:42;;;;;;;2.30;1.50;;;;;;;;;;6304447;22;20043;-83
2021/06/01 23:32:08;;;;;;;3.67;1.60;;;;;;;;;;6330088;22;20002;-83
2021/06/01 23:34:33;;;;;;;3.65;1.30;;;;;;;;;;6304969;22;20011;-83
2021/06/01 23:37:05;;;;;;;2.42;1.50;;;;;;;;;;6306713;22;19976;-83
2021/06/01 23:39:49;;;;;;;4.35;1.50;;;;;;;;;;6331954;22;19995;-83
2021/06/01 23:42:15;;;;;;;2.65;1.60;;;;;;;;;;6307000;22;19983;-83
2021/06/01 23:44:40;;;;;;;5.10;1.50;;;;;;;;;;6306807;22;20076;-84
2021/06/01 23:47:10;;;;;;;2.25;1.35;;;;;;;;;;6305966;22;19992;-83
2021/06/01 23:49:52;;;;;;;4.03;1.75;;;;;;;;;;6306297;22;20016;-83
2021/06/01 23:52:19;;;;;;;3.60;1.70;;;;;;;;;;6305416;22;19991;-81
2021/06/01 23:54:45;;;;;;;3.50;1.60;;;;;;;;;;6305625;22;19992;-83
2021/06/01 23:57:12;;;;;;;3.58;1.60;;;;;;;;;;6304753;22;20007;-83
2021/06/01 23:59:37;;;;;;;2.08;1.42;;;;;;;;;;6305770;22;20003;-82
